sensor_id;sensor_type;location;lat;lon;timestamp;temperature;humidity
71801;HTU21D;59647;55.838;37.292;2023-07-29T00:01:35;17.19;101.25
71801;HTU21D;59647;55.838;37.292;2023-07-29T00:04:02;17.19;100.91
71801;HTU21D;59647;55.838;37.292;2023-07-29T00:06:28;17.15;101.26
71801;HTU21D;59647;55.838;37.292;2023-07-29T00:08:54;17.18;101.09
71801;HTU21D;59647;55.838;37.292;2023-07-29T00:11:20;17.18;101.19
71801;HTU21D;59647;55.838;37.292;2023-07-29T00:13:45;17.15;101.70
71801;HTU21D;59647;55.838;37.292;2023-07-29T00:16:13;17.13;101.63
71801;HTU21D;59647;55.838;37.292;2023-07-29T00:18:41;17.09;101.40
71801;HTU21D;59647;55.838;37.292;2023-07-29T00:21:07;17.06;102.57
71801;HTU21D;59647;55.838;37.292;2023-07-29T00:23:33;17.06;101.41
71801;HTU21D;59647;55.838;37.292;2023-07-29T00:25:59;17.03;101.67
71801;HTU21D;59647;55.838;37.292;2023-07-29T00:28:25;17.03;101.67
71801;HTU21D;59647;55.838;37.292;2023-07-29T00:30:51;17.03;101.80
71801;HTU21D;59647;55.838;37.292;2023-07-29T00:33:20;17.05;101.74
71801;HTU21D;59647;55.838;37.292;2023-07-29T00:35:46;17.07;101.59
71801;HTU21D;59647;55.838;37.292;2023-07-29T00:38:12;17.08;101.39
71801;HTU21D;59647;55.838;37.292;2023-07-29T00:40:38;17.08;101.50
71801;HTU21D;59647;55.838;37.292;2023-07-29T00:43:04;17.07;101.41
71801;HTU21D;59647;55.838;37.292;2023-07-29T00:45:31;17.04;101.83
71801;HTU21D;59647;55.838;37.292;2023-07-29T00:47:58;17.05;101.77
71801;HTU21D;59647;55.838;37.292;2023-07-29T00:50:25;17.05;101.96
71801;HTU21D;59647;55.838;37.292;2023-07-29T00:52:54;17.02;102.12
71801;HTU21D;59647;55.838;37.292;2023-07-29T00:55:23;17.00;102.49
71801;HTU21D;59647;55.838;37.292;2023-07-29T00:57:51;17.02;102.02
71801;HTU21D;59647;55.838;37.292;2023-07-29T01:00:20;17.03;102.02
71801;HTU21D;59647;55.838;37.292;2023-07-29T01:02:46;17.03;101.99
71801;HTU21D;59647;55.838;37.292;2023-07-29T01:05:14;16.98;102.76
71801;HTU21D;59647;55.838;37.292;2023-07-29T01:13:56;16.86;103.74
71801;HTU21D;59647;55.838;37.292;2023-07-29T01:16:35;16.84;102.38
71801;HTU21D;59647;55.838;37.292;2023-07-29T01:19:05;16.82;102.91
71801;HTU21D;59647;55.838;37.292;2023-07-29T01:21:38;16.82;102.36
71801;HTU21D;59647;55.838;37.292;2023-07-29T01:24:04;16.77;103.95
71801;HTU21D;59647;55.838;37.292;2023-07-29T01:26:30;16.75;103.42
71801;HTU21D;59647;55.838;37.292;2023-07-29T01:28:57;16.72;103.02
71801;HTU21D;59647;55.838;37.292;2023-07-29T01:31:31;16.69;104.78
71801;HTU21D;59647;55.838;37.292;2023-07-29T01:34:05;16.70;102.86
71801;HTU21D;59647;55.838;37.292;2023-07-29T01:36:34;16.72;102.57
71801;HTU21D;59647;55.838;37.292;2023-07-29T01:39:05;16.70;103.27
71801;HTU21D;59647;55.838;37.292;2023-07-29T01:41:31;16.67;104.47
71801;HTU21D;59647;55.838;37.292;2023-07-29T01:43:58;16.70;102.76
71801;HTU21D;59647;55.838;37.292;2023-07-29T01:46:25;16.65;103.25
71801;HTU21D;59647;55.838;37.292;2023-07-29T01:48:51;16.63;103.25
71801;HTU21D;59647;55.838;37.292;2023-07-29T01:51:17;16.61;103.76
71801;HTU21D;59647;55.838;37.292;2023-07-29T01:53:43;16.60;104.88
71801;HTU21D;59647;55.838;37.292;2023-07-29T01:56:09;16.59;104.75
71801;HTU21D;59647;55.838;37.292;2023-07-29T01:58:41;16.59;105.54
71801;HTU21D;59647;55.838;37.292;2023-07-29T02:01:07;16.59;104.76
71801;HTU21D;59647;55.838;37.292;2023-07-29T02:03:33;16.61;103.66
71801;HTU21D;59647;55.838;37.292;2023-07-29T02:05:59;16.61;104.57
71801;HTU21D;59647;55.838;37.292;2023-07-29T02:08:25;16.65;103.62
71801;HTU21D;59647;55.838;37.292;2023-07-29T02:10:51;16.69;104.02
71801;HTU21D;59647;55.838;37.292;2023-07-29T02:13:17;16.72;103.51
71801;HTU21D;59647;55.838;37.292;2023-07-29T02:15:43;16.66;103.81
71801;HTU21D;59647;55.838;37.292;2023-07-29T02:18:10;16.66;104.59
71801;HTU21D;59647;55.838;37.292;2023-07-29T02:20:35;16.66;104.58
71801;HTU21D;59647;55.838;37.292;2023-07-29T02:23:01;16.71;104.48
71801;HTU21D;59647;55.838;37.292;2023-07-29T02:25:27;16.73;104.28
71801;HTU21D;59647;55.838;37.292;2023-07-29T02:27:53;16.74;104.12
71801;HTU21D;59647;55.838;37.292;2023-07-29T02:30:20;16.77;104.19
71801;HTU21D;59647;55.838;37.292;2023-07-29T02:32:46;16.77;103.35
71801;HTU21D;59647;55.838;37.292;2023-07-29T02:35:12;16.75;104.35
71801;HTU21D;59647;55.838;37.292;2023-07-29T02:37:38;16.76;104.21
71801;HTU21D;59647;55.838;37.292;2023-07-29T02:40:05;16.78;104.10
71801;HTU21D;59647;55.838;37.292;2023-07-29T02:42:31;16.81;104.04
71801;HTU21D;59647;55.838;37.292;2023-07-29T02:44:57;16.85;103.78
71801;HTU21D;59647;55.838;37.292;2023-07-29T02:47:24;16.88;103.76
71801;HTU21D;59647;55.838;37.292;2023-07-29T02:49:50;16.89;103.79
71801;HTU21D;59647;55.838;37.292;2023-07-29T02:52:16;16.91;103.79
71801;HTU21D;59647;55.838;37.292;2023-07-29T02:54:42;16.95;103.76
71801;HTU21D;59647;55.838;37.292;2023-07-29T02:57:08;16.98;103.65
71801;HTU21D;59647;55.838;37.292;2023-07-29T02:59:33;16.99;103.15
71801;HTU21D;59647;55.838;37.292;2023-07-29T03:01:59;17.01;103.27
71801;HTU21D;59647;55.838;37.292;2023-07-29T03:04:25;17.01;103.18
71801;HTU21D;59647;55.838;37.292;2023-07-29T03:06:52;17.01;103.52
71801;HTU21D;59647;55.838;37.292;2023-07-29T03:09:17;17.02;103.45
71801;HTU21D;59647;55.838;37.292;2023-07-29T03:11:43;17.01;103.60
71801;HTU21D;59647;55.838;37.292;2023-07-29T03:14:10;16.95;103.49
71801;HTU21D;59647;55.838;37.292;2023-07-29T03:16:36;16.91;104.42
71801;HTU21D;59647;55.838;37.292;2023-07-29T03:19:02;16.91;103.41
71801;HTU21D;59647;55.838;37.292;2023-07-29T03:21:28;16.93;103.81
71801;HTU21D;59647;55.838;37.292;2023-07-29T03:23:54;16.96;103.38
71801;HTU21D;59647;55.838;37.292;2023-07-29T03:26:20;16.99;102.93
71801;HTU21D;59647;55.838;37.292;2023-07-29T03:28:46;17.00;102.88
71801;HTU21D;59647;55.838;37.292;2023-07-29T03:31:12;17.00;103.38
71801;HTU21D;59647;55.838;37.292;2023-07-29T03:33:38;16.99;103.57
71801;HTU21D;59647;55.838;37.292;2023-07-29T03:36:05;17.01;103.10
71801;HTU21D;59647;55.838;37.292;2023-07-29T03:38:31;17.00;102.92
71801;HTU21D;59647;55.838;37.292;2023-07-29T03:41:00;16.99;103.85
71801;HTU21D;59647;55.838;37.292;2023-07-29T03:43:29;16.98;104.12
71801;HTU21D;59647;55.838;37.292;2023-07-29T03:45:57;17.02;103.71
71801;HTU21D;59647;55.838;37.292;2023-07-29T03:48:23;17.03;103.60
71801;HTU21D;59647;55.838;37.292;2023-07-29T03:50:49;17.05;102.71
71801;HTU21D;59647;55.838;37.292;2023-07-29T03:53:15;17.04;103.79
71801;HTU21D;59647;55.838;37.292;2023-07-29T03:55:41;17.01;104.20
71801;HTU21D;59647;55.838;37.292;2023-07-29T03:58:07;17.04;104.23
71801;HTU21D;59647;55.838;37.292;2023-07-29T04:00:33;17.07;104.19
71801;HTU21D;59647;55.838;37.292;2023-07-29T04:02:59;17.11;103.82
71801;HTU21D;59647;55.838;37.292;2023-07-29T04:05:25;17.16;103.49
71801;HTU21D;59647;55.838;37.292;2023-07-29T04:07:51;17.14;103.71
71801;HTU21D;59647;55.838;37.292;2023-07-29T04:10:17;17.14;103.68
71801;HTU21D;59647;55.838;37.292;2023-07-29T04:12:43;17.15;103.58
71801;HTU21D;59647;55.838;37.292;2023-07-29T04:15:09;17.19;103.14
71801;HTU21D;59647;55.838;37.292;2023-07-29T04:17:35;17.16;103.58
71801;HTU21D;59647;55.838;37.292;2023-07-29T04:20:03;17.21;103.88
71801;HTU21D;59647;55.838;37.292;2023-07-29T04:22:33;17.22;104.29
71801;HTU21D;59647;55.838;37.292;2023-07-29T04:24:59;17.24;103.18
71801;HTU21D;59647;55.838;37.292;2023-07-29T04:27:25;17.25;103.73
71801;HTU21D;59647;55.838;37.292;2023-07-29T04:29:51;17.25;103.31
71801;HTU21D;59647;55.838;37.292;2023-07-29T04:32:17;17.25;103.17
71801;HTU21D;59647;55.838;37.292;2023-07-29T04:34:43;17.30;103.31
71801;HTU21D;59647;55.838;37.292;2023-07-29T04:37:10;17.33;102.88
71801;HTU21D;59647;55.838;37.292;2023-07-29T04:39:36;17.30;103.64
71801;HTU21D;59647;55.838;37.292;2023-07-29T04:42:03;17.29;102.99
71801;HTU21D;59647;55.838;37.292;2023-07-29T04:44:29;17.33;103.11
71801;HTU21D;59647;55.838;37.292;2023-07-29T04:46:55;17.34;102.53
71801;HTU21D;59647;55.838;37.292;2023-07-29T04:49:21;17.32;102.95
71801;HTU21D;59647;55.838;37.292;2023-07-29T04:51:47;17.35;103.19
71801;HTU21D;59647;55.838;37.292;2023-07-29T04:54:13;17.37;103.76
71801;HTU21D;59647;55.838;37.292;2023-07-29T04:56:40;17.46;103.21
71801;HTU21D;59647;55.838;37.292;2023-07-29T04:59:08;17.44;103.16
71801;HTU21D;59647;55.838;37.292;2023-07-29T05:01:34;17.45;103.26
71801;HTU21D;59647;55.838;37.292;2023-07-29T05:04:01;17.45;103.70
71801;HTU21D;59647;55.838;37.292;2023-07-29T05:06:28;17.43;103.56
71801;HTU21D;59647;55.838;37.292;2023-07-29T05:08:57;17.44;103.26
71801;HTU21D;59647;55.838;37.292;2023-07-29T05:11:23;17.47;103.34
71801;HTU21D;59647;55.838;37.292;2023-07-29T05:13:51;17.52;102.99
71801;HTU21D;59647;55.838;37.292;2023-07-29T05:16:17;17.58;103.02
71801;HTU21D;59647;55.838;37.292;2023-07-29T05:18:44;17.61;103.66
71801;HTU21D;59647;55.838;37.292;2023-07-29T05:21:10;17.67;102.47
71801;HTU21D;59647;55.838;37.292;2023-07-29T05:23:40;17.66;102.15
71801;HTU21D;59647;55.838;37.292;2023-07-29T05:26:06;17.66;101.90
71801;HTU21D;59647;55.838;37.292;2023-07-29T05:28:32;17.62;102.37
71801;HTU21D;59647;55.838;37.292;2023-07-29T05:31:01;17.67;101.70
71801;HTU21D;59647;55.838;37.292;2023-07-29T05:33:27;17.65;102.32
71801;HTU21D;59647;55.838;37.292;2023-07-29T05:35:53;17.69;101.74
71801;HTU21D;59647;55.838;37.292;2023-07-29T05:38:19;17.72;102.30
71801;HTU21D;59647;55.838;37.292;2023-07-29T05:40:45;17.75;101.93
71801;HTU21D;59647;55.838;37.292;2023-07-29T05:43:11;17.80;102.08
71801;HTU21D;59647;55.838;37.292;2023-07-29T05:45:37;17.89;101.54
71801;HTU21D;59647;55.838;37.292;2023-07-29T05:48:04;17.87;101.39
71801;HTU21D;59647;55.838;37.292;2023-07-29T05:50:30;17.84;101.08
71801;HTU21D;59647;55.838;37.292;2023-07-29T05:52:56;17.87;101.54
71801;HTU21D;59647;55.838;37.292;2023-07-29T05:55:22;17.95;101.67
71801;HTU21D;59647;55.838;37.292;2023-07-29T05:57:48;18.07;101.25
71801;HTU21D;59647;55.838;37.292;2023-07-29T06:00:14;18.13;101.44
71801;HTU21D;59647;55.838;37.292;2023-07-29T06:02:40;18.13;100.63
71801;HTU21D;59647;55.838;37.292;2023-07-29T06:05:14;18.14;100.39
71801;HTU21D;59647;55.838;37.292;2023-07-29T06:07:41;18.21;101.07
71801;HTU21D;59647;55.838;37.292;2023-07-29T06:10:15;18.30;101.05
71801;HTU21D;59647;55.838;37.292;2023-07-29T06:12:47;18.37;100.04
71801;HTU21D;59647;55.838;37.292;2023-07-29T06:15:13;18.37;100.09
71801;HTU21D;59647;55.838;37.292;2023-07-29T06:17:40;18.32;100.19
71801;HTU21D;59647;55.838;37.292;2023-07-29T06:20:07;18.38;100.01
71801;HTU21D;59647;55.838;37.292;2023-07-29T06:22:33;18.30;100.03
71801;HTU21D;59647;55.838;37.292;2023-07-29T06:24:59;18.36;100.32
71801;HTU21D;59647;55.838;37.292;2023-07-29T06:27:25;18.42;100.19
71801;HTU21D;59647;55.838;37.292;2023-07-29T06:29:51;18.46;99.89
71801;HTU21D;59647;55.838;37.292;2023-07-29T06:32:17;18.50;99.84
71801;HTU21D;59647;55.838;37.292;2023-07-29T06:34:43;18.49;99.71
71801;HTU21D;59647;55.838;37.292;2023-07-29T06:37:09;18.46;98.80
71801;HTU21D;59647;55.838;37.292;2023-07-29T06:39:35;18.49;99.11
71801;HTU21D;59647;55.838;37.292;2023-07-29T06:42:04;18.49;99.26
71801;HTU21D;59647;55.838;37.292;2023-07-29T06:44:30;18.50;98.64
71801;HTU21D;59647;55.838;37.292;2023-07-29T06:46:57;18.46;98.72
71801;HTU21D;59647;55.838;37.292;2023-07-29T06:49:24;18.44;98.80
71801;HTU21D;59647;55.838;37.292;2023-07-29T06:51:50;18.48;99.07
71801;HTU21D;59647;55.838;37.292;2023-07-29T06:54:16;18.47;99.28
71801;HTU21D;59647;55.838;37.292;2023-07-29T06:56:43;18.44;98.74
71801;HTU21D;59647;55.838;37.292;2023-07-29T06:59:09;18.42;99.15
71801;HTU21D;59647;55.838;37.292;2023-07-29T07:01:34;18.42;99.13
71801;HTU21D;59647;55.838;37.292;2023-07-29T07:04:00;18.42;99.07
71801;HTU21D;59647;55.838;37.292;2023-07-29T07:06:26;18.39;98.89
71801;HTU21D;59647;55.838;37.292;2023-07-29T07:08:52;18.41;98.80
71801;HTU21D;59647;55.838;37.292;2023-07-29T07:11:19;18.44;99.06
71801;HTU21D;59647;55.838;37.292;2023-07-29T07:13:45;18.48;99.13
71801;HTU21D;59647;55.838;37.292;2023-07-29T07:16:11;18.47;99.03
71801;HTU21D;59647;55.838;37.292;2023-07-29T07:18:37;18.49;98.97
71801;HTU21D;59647;55.838;37.292;2023-07-29T07:21:03;18.52;98.90
71801;HTU21D;59647;55.838;37.292;2023-07-29T07:23:29;18.58;99.00
71801;HTU21D;59647;55.838;37.292;2023-07-29T07:25:54;18.59;98.57
71801;HTU21D;59647;55.838;37.292;2023-07-29T07:28:20;18.59;98.63
71801;HTU21D;59647;55.838;37.292;2023-07-29T07:30:46;18.69;98.80
71801;HTU21D;59647;55.838;37.292;2023-07-29T07:33:12;18.68;97.49
71801;HTU21D;59647;55.838;37.292;2023-07-29T07:35:38;18.65;98.10
71801;HTU21D;59647;55.838;37.292;2023-07-29T07:38:04;18.57;97.84
71801;HTU21D;59647;55.838;37.292;2023-07-29T07:40:33;18.58;97.84
71801;HTU21D;59647;55.838;37.292;2023-07-29T07:42:59;18.56;98.45
71801;HTU21D;59647;55.838;37.292;2023-07-29T07:45:25;18.59;98.66
71801;HTU21D;59647;55.838;37.292;2023-07-29T07:47:52;18.64;98.48
71801;HTU21D;59647;55.838;37.292;2023-07-29T07:50:21;18.61;98.39
71801;HTU21D;59647;55.838;37.292;2023-07-29T07:52:47;18.64;97.62
71801;HTU21D;59647;55.838;37.292;2023-07-29T07:55:13;18.68;98.37
71801;HTU21D;59647;55.838;37.292;2023-07-29T07:57:39;18.73;98.41
71801;HTU21D;59647;55.838;37.292;2023-07-29T08:00:05;18.82;98.83
71801;HTU21D;59647;55.838;37.292;2023-07-29T08:02:39;18.88;98.33
71801;HTU21D;59647;55.838;37.292;2023-07-29T08:05:05;18.92;97.52
71801;HTU21D;59647;55.838;37.292;2023-07-29T08:07:31;18.94;98.47
71801;HTU21D;59647;55.838;37.292;2023-07-29T08:09:57;19.05;98.72
71801;HTU21D;59647;55.838;37.292;2023-07-29T08:12:23;19.15;97.81
71801;HTU21D;59647;55.838;37.292;2023-07-29T08:14:49;19.15;96.17
71801;HTU21D;59647;55.838;37.292;2023-07-29T08:17:15;19.12;96.81
71801;HTU21D;59647;55.838;37.292;2023-07-29T08:19:41;19.10;96.29
71801;HTU21D;59647;55.838;37.292;2023-07-29T08:22:07;19.14;96.80
71801;HTU21D;59647;55.838;37.292;2023-07-29T08:24:33;19.18;96.13
71801;HTU21D;59647;55.838;37.292;2023-07-29T08:27:00;19.24;97.16
71801;HTU21D;59647;55.838;37.292;2023-07-29T08:29:25;19.09;96.77
71801;HTU21D;59647;55.838;37.292;2023-07-29T08:31:51;19.02;97.09
71801;HTU21D;59647;55.838;37.292;2023-07-29T08:34:17;19.00;97.13
71801;HTU21D;59647;55.838;37.292;2023-07-29T08:36:43;18.91;96.36
71801;HTU21D;59647;55.838;37.292;2023-07-29T08:39:09;18.89;96.83
71801;HTU21D;59647;55.838;37.292;2023-07-29T08:41:51;18.94;97.40
71801;HTU21D;59647;55.838;37.292;2023-07-29T08:44:22;19.00;97.02
71801;HTU21D;59647;55.838;37.292;2023-07-29T08:46:50;19.02;96.84
71801;HTU21D;59647;55.838;37.292;2023-07-29T08:49:18;19.09;97.10
71801;HTU21D;59647;55.838;37.292;2023-07-29T08:51:47;19.13;96.89
71801;HTU21D;59647;55.838;37.292;2023-07-29T08:54:18;19.23;97.11
71801;HTU21D;59647;55.838;37.292;2023-07-29T08:56:45;19.38;97.12
71801;HTU21D;59647;55.838;37.292;2023-07-29T08:59:12;19.43;96.92
71801;HTU21D;59647;55.838;37.292;2023-07-29T09:01:41;19.48;96.73
71801;HTU21D;59647;55.838;37.292;2023-07-29T09:04:07;19.57;96.96
71801;HTU21D;59647;55.838;37.292;2023-07-29T09:06:35;19.57;96.42
71801;HTU21D;59647;55.838;37.292;2023-07-29T09:09:01;19.45;96.24
71801;HTU21D;59647;55.838;37.292;2023-07-29T09:11:28;19.35;96.52
71801;HTU21D;59647;55.838;37.292;2023-07-29T09:13:54;19.41;96.99
71801;HTU21D;59647;55.838;37.292;2023-07-29T09:16:20;19.41;96.89
71801;HTU21D;59647;55.838;37.292;2023-07-29T09:18:48;19.42;95.98
71801;HTU21D;59647;55.838;37.292;2023-07-29T09:21:23;19.29;96.40
71801;HTU21D;59647;55.838;37.292;2023-07-29T09:23:51;19.26;96.27
71801;HTU21D;59647;55.838;37.292;2023-07-29T09:26:27;19.21;97.23
71801;HTU21D;59647;55.838;37.292;2023-07-29T09:28:55;19.28;96.82
71801;HTU21D;59647;55.838;37.292;2023-07-29T09:31:22;19.32;96.58
71801;HTU21D;59647;55.838;37.292;2023-07-29T09:33:49;19.31;96.59
71801;HTU21D;59647;55.838;37.292;2023-07-29T09:36:15;19.31;96.39
71801;HTU21D;59647;55.838;37.292;2023-07-29T09:38:43;19.20;95.72
71801;HTU21D;59647;55.838;37.292;2023-07-29T09:41:12;19.22;96.33
71801;HTU21D;59647;55.838;37.292;2023-07-29T09:43:41;19.12;96.16
71801;HTU21D;59647;55.838;37.292;2023-07-29T09:46:07;19.09;96.28
71801;HTU21D;59647;55.838;37.292;2023-07-29T09:48:36;19.22;96.62
71801;HTU21D;59647;55.838;37.292;2023-07-29T09:51:13;19.36;96.16
71801;HTU21D;59647;55.838;37.292;2023-07-29T09:53:46;19.46;96.25
71801;HTU21D;59647;55.838;37.292;2023-07-29T09:56:13;19.51;95.94
71801;HTU21D;59647;55.838;37.292;2023-07-29T09:58:39;19.57;95.87
71801;HTU21D;59647;55.838;37.292;2023-07-29T10:01:08;19.47;94.94
71801;HTU21D;59647;55.838;37.292;2023-07-29T10:03:35;19.54;95.41
71801;HTU21D;59647;55.838;37.292;2023-07-29T10:06:05;19.59;94.64
71801;HTU21D;59647;55.838;37.292;2023-07-29T10:08:32;19.66;95.12
71801;HTU21D;59647;55.838;37.292;2023-07-29T10:11:08;19.77;95.27
71801;HTU21D;59647;55.838;37.292;2023-07-29T10:13:36;19.97;95.45
71801;HTU21D;59647;55.838;37.292;2023-07-29T10:16:03;20.03;91.86
71801;HTU21D;59647;55.838;37.292;2023-07-29T10:18:31;20.11;93.26
71801;HTU21D;59647;55.838;37.292;2023-07-29T10:20:59;20.19;94.04
71801;HTU21D;59647;55.838;37.292;2023-07-29T10:23:26;20.21;93.95
71801;HTU21D;59647;55.838;37.292;2023-07-29T10:28:29;20.21;93.71
71801;HTU21D;59647;55.838;37.292;2023-07-29T10:30:57;20.20;93.87
71801;HTU21D;59647;55.838;37.292;2023-07-29T10:33:26;20.31;93.88
71801;HTU21D;59647;55.838;37.292;2023-07-29T10:35:53;20.42;91.12
71801;HTU21D;59647;55.838;37.292;2023-07-29T10:38:24;20.51;93.01
71801;HTU21D;59647;55.838;37.292;2023-07-29T10:40:53;20.55;92.69
71801;HTU21D;59647;55.838;37.292;2023-07-29T10:43:32;20.63;92.92
71801;HTU21D;59647;55.838;37.292;2023-07-29T10:48:54;20.72;92.15
71801;HTU21D;59647;55.838;37.292;2023-07-29T10:51:23;20.68;92.08
71801;HTU21D;59647;55.838;37.292;2023-07-29T10:53:57;20.63;87.62
71801;HTU21D;59647;55.838;37.292;2023-07-29T10:56:44;20.51;90.65
71801;HTU21D;59647;55.838;37.292;2023-07-29T11:01:56;20.34;90.69
71801;HTU21D;59647;55.838;37.292;2023-07-29T11:04:25;20.36;91.08
71801;HTU21D;59647;55.838;37.292;2023-07-29T11:09:41;20.29;90.42
71801;HTU21D;59647;55.838;37.292;2023-07-29T11:15:24;20.54;87.59
71801;HTU21D;59647;55.838;37.292;2023-07-29T11:18:00;20.46;90.45
71801;HTU21D;59647;55.838;37.292;2023-07-29T11:20:31;20.32;88.50
71801;HTU21D;59647;55.838;37.292;2023-07-29T11:22:59;20.36;88.52
71801;HTU21D;59647;55.838;37.292;2023-07-29T11:25:27;20.35;88.54
71801;HTU21D;59647;55.838;37.292;2023-07-29T11:27:55;20.35;88.50
71801;HTU21D;59647;55.838;37.292;2023-07-29T11:30:21;20.45;89.03
71801;HTU21D;59647;55.838;37.292;2023-07-29T11:32:58;20.45;88.76
71801;HTU21D;59647;55.838;37.292;2023-07-29T11:35:24;20.47;88.68
71801;HTU21D;59647;55.838;37.292;2023-07-29T11:37:51;20.46;89.17
71801;HTU21D;59647;55.838;37.292;2023-07-29T11:40:20;20.54;89.30
71801;HTU21D;59647;55.838;37.292;2023-07-29T11:42:48;20.58;89.19
71801;HTU21D;59647;55.838;37.292;2023-07-29T11:45:16;20.61;87.82
71801;HTU21D;59647;55.838;37.292;2023-07-29T11:47:45;20.65;89.12
71801;HTU21D;59647;55.838;37.292;2023-07-29T11:50:12;20.70;88.23
71801;HTU21D;59647;55.838;37.292;2023-07-29T11:52:46;20.74;88.68
71801;HTU21D;59647;55.838;37.292;2023-07-29T11:55:14;20.77;87.73
71801;HTU21D;59647;55.838;37.292;2023-07-29T11:57:41;20.75;87.87
71801;HTU21D;59647;55.838;37.292;2023-07-29T12:00:10;20.83;88.14
71801;HTU21D;59647;55.838;37.292;2023-07-29T12:02:40;20.83;88.14
71801;HTU21D;59647;55.838;37.292;2023-07-29T12:05:09;20.90;88.02
71801;HTU21D;59647;55.838;37.292;2023-07-29T12:07:38;20.96;87.64
71801;HTU21D;59647;55.838;37.292;2023-07-29T12:10:05;21.03;86.45
71801;HTU21D;59647;55.838;37.292;2023-07-29T12:12:32;21.03;86.99
71801;HTU21D;59647;55.838;37.292;2023-07-29T12:14:58;21.04;87.54
71801;HTU21D;59647;55.838;37.292;2023-07-29T12:17:24;21.01;87.09
71801;HTU21D;59647;55.838;37.292;2023-07-29T12:19:54;21.02;86.64
71801;HTU21D;59647;55.838;37.292;2023-07-29T12:22:20;21.03;87.19
71801;HTU21D;59647;55.838;37.292;2023-07-29T12:24:46;21.00;86.69
71801;HTU21D;59647;55.838;37.292;2023-07-29T12:27:13;21.01;87.49
71801;HTU21D;59647;55.838;37.292;2023-07-29T12:29:40;21.03;87.23
71801;HTU21D;59647;55.838;37.292;2023-07-29T12:32:07;21.08;87.21
71801;HTU21D;59647;55.838;37.292;2023-07-29T12:34:35;20.98;86.41
71801;HTU21D;59647;55.838;37.292;2023-07-29T12:37:03;20.92;86.86
71801;HTU21D;59647;55.838;37.292;2023-07-29T12:39:34;21.00;85.87
71801;HTU21D;59647;55.838;37.292;2023-07-29T12:42:01;21.01;85.81
71801;HTU21D;59647;55.838;37.292;2023-07-29T12:44:36;21.01;84.67
71801;HTU21D;59647;55.838;37.292;2023-07-29T12:47:02;21.02;86.09
71801;HTU21D;59647;55.838;37.292;2023-07-29T12:49:30;20.98;86.37
71801;HTU21D;59647;55.838;37.292;2023-07-29T12:51:59;20.93;86.03
71801;HTU21D;59647;55.838;37.292;2023-07-29T12:54:25;20.94;85.84
71801;HTU21D;59647;55.838;37.292;2023-07-29T12:56:52;21.00;85.91
71801;HTU21D;59647;55.838;37.292;2023-07-29T12:59:18;21.03;85.84
71801;HTU21D;59647;55.838;37.292;2023-07-29T13:01:44;21.07;85.74
71801;HTU21D;59647;55.838;37.292;2023-07-29T13:04:11;21.11;85.80
71801;HTU21D;59647;55.838;37.292;2023-07-29T13:06:38;21.22;85.97
71801;HTU21D;59647;55.838;37.292;2023-07-29T13:09:04;21.23;86.05
71801;HTU21D;59647;55.838;37.292;2023-07-29T13:11:32;21.25;85.32
71801;HTU21D;59647;55.838;37.292;2023-07-29T13:13:59;21.27;85.73
71801;HTU21D;59647;55.838;37.292;2023-07-29T13:16:27;21.27;85.68
71801;HTU21D;59647;55.838;37.292;2023-07-29T13:18:54;21.32;85.48
71801;HTU21D;59647;55.838;37.292;2023-07-29T13:21:21;21.28;85.22
71801;HTU21D;59647;55.838;37.292;2023-07-29T13:23:47;21.28;85.22
71801;HTU21D;59647;55.838;37.292;2023-07-29T13:26:13;21.28;85.31
71801;HTU21D;59647;55.838;37.292;2023-07-29T13:28:39;21.36;85.03
71801;HTU21D;59647;55.838;37.292;2023-07-29T13:31:05;21.30;85.11
71801;HTU21D;59647;55.838;37.292;2023-07-29T13:33:31;21.32;85.25
71801;HTU21D;59647;55.838;37.292;2023-07-29T13:36:00;21.42;85.24
71801;HTU21D;59647;55.838;37.292;2023-07-29T13:38:29;21.46;85.37
71801;HTU21D;59647;55.838;37.292;2023-07-29T13:40:56;21.54;85.09
71801;HTU21D;59647;55.838;37.292;2023-07-29T13:43:22;21.59;85.06
71801;HTU21D;59647;55.838;37.292;2023-07-29T13:45:48;21.53;85.08
71801;HTU21D;59647;55.838;37.292;2023-07-29T13:48:16;21.47;84.95
71801;HTU21D;59647;55.838;37.292;2023-07-29T13:50:43;21.54;85.13
71801;HTU21D;59647;55.838;37.292;2023-07-29T13:53:13;21.60;84.74
71801;HTU21D;59647;55.838;37.292;2023-07-29T13:55:40;21.63;84.08
71801;HTU21D;59647;55.838;37.292;2023-07-29T13:58:06;21.69;84.29
71801;HTU21D;59647;55.838;37.292;2023-07-29T14:00:33;21.74;83.06
71801;HTU21D;59647;55.838;37.292;2023-07-29T14:02:59;21.76;84.15
71801;HTU21D;59647;55.838;37.292;2023-07-29T14:05:25;21.83;84.31
71801;HTU21D;59647;55.838;37.292;2023-07-29T14:07:52;21.75;83.36
71801;HTU21D;59647;55.838;37.292;2023-07-29T14:10:19;21.82;83.64
71801;HTU21D;59647;55.838;37.292;2023-07-29T14:12:45;21.90;82.92
71801;HTU21D;59647;55.838;37.292;2023-07-29T14:15:11;21.81;81.15
71801;HTU21D;59647;55.838;37.292;2023-07-29T14:17:37;21.78;82.46
71801;HTU21D;59647;55.838;37.292;2023-07-29T14:20:04;21.89;83.13
71801;HTU21D;59647;55.838;37.292;2023-07-29T14:22:30;22.02;82.99
71801;HTU21D;59647;55.838;37.292;2023-07-29T14:24:56;22.13;83.20
71801;HTU21D;59647;55.838;37.292;2023-07-29T14:27:22;22.17;83.20
71801;HTU21D;59647;55.838;37.292;2023-07-29T14:29:48;22.18;82.92
71801;HTU21D;59647;55.838;37.292;2023-07-29T14:32:14;22.22;82.78
71801;HTU21D;59647;55.838;37.292;2023-07-29T14:34:40;22.28;82.48
71801;HTU21D;59647;55.838;37.292;2023-07-29T14:37:07;22.35;82.47
71801;HTU21D;59647;55.838;37.292;2023-07-29T14:39:33;22.33;82.38
71801;HTU21D;59647;55.838;37.292;2023-07-29T14:41:59;22.36;82.59
71801;HTU21D;59647;55.838;37.292;2023-07-29T14:44:25;22.35;82.55
71801;HTU21D;59647;55.838;37.292;2023-07-29T14:46:50;22.33;81.89
71801;HTU21D;59647;55.838;37.292;2023-07-29T14:49:16;22.35;82.15
71801;HTU21D;59647;55.838;37.292;2023-07-29T14:51:42;22.39;82.10
71801;HTU21D;59647;55.838;37.292;2023-07-29T14:54:10;22.41;82.07
71801;HTU21D;59647;55.838;37.292;2023-07-29T14:56:36;22.50;82.25
71801;HTU21D;59647;55.838;37.292;2023-07-29T14:59:02;22.56;82.13
71801;HTU21D;59647;55.838;37.292;2023-07-29T15:01:28;22.63;82.20
71801;HTU21D;59647;55.838;37.292;2023-07-29T15:03:54;22.54;81.65
71801;HTU21D;59647;55.838;37.292;2023-07-29T15:06:21;22.50;82.10
71801;HTU21D;59647;55.838;37.292;2023-07-29T15:08:47;22.50;82.18
71801;HTU21D;59647;55.838;37.292;2023-07-29T15:11:13;22.52;82.18
71801;HTU21D;59647;55.838;37.292;2023-07-29T15:13:40;22.50;81.91
71801;HTU21D;59647;55.838;37.292;2023-07-29T15:16:06;22.46;81.72